CDT,Max TemperatureF,Mean TemperatureF,Min TemperatureF,Max Dew PointF,MeanDew PointF,Min DewpointF,Max Humidity, Mean Humidity, Min Humidity, Max Sea Level PressureIn, Mean Sea Level PressureIn, Min Sea Level PressureIn, Max VisibilityMiles, Mean VisibilityMiles, Min VisibilityMiles, Max Wind SpeedMPH, Mean Wind SpeedMPH, Max Gust SpeedMPH,PrecipitationIn, CloudCover, Events, WindDirDegrees
2013-8-1,82,65,48,55,51,47,93,63,33,30.06,29.99,29.89,10,10,10,15,5,20,0.00,2,,278
2013-8-2,77,65,52,55,51,46,96,66,36,30.09,29.98,29.89,10,10,10,14,5,17,0.00,0,,336
2013-8-3,78,62,46,53,48,42,93,62,31,30.24,30.18,30.10,10,10,6,14,4,22,0.00,1,,342
2013-8-4,76,61,45,53,49,44,100,71,41,30.27,30.18,30.01,10,10,10,12,4,15,0.00,1,,145
2013-8-5,82,69,55,63,60,54,100,74,47,30.03,29.91,29.82,10,9,2,16,6,21,0.31,5,Rain-Thunderstorm,254
2013-8-6,83,68,52,65,59,52,100,77,54,29.86,29.79,29.68,10,9,2,31,6,41,0.16,3,Rain-Thunderstorm,210
2013-8-7,77,65,53,60,53,47,100,68,36,30.05,29.97,29.84,10,10,10,13,5,17,0.00,1,,346
2013-8-8,76,64,51,63,56,51,100,73,46,30.08,30.04,29.99,10,9,2,15,4,20,0.11,4,Rain,238
2013-8-9,75,63,50,57,52,47,100,69,38,30.16,30.07,30.01,10,8,2,21,7,28,0.00,3,,316
2013-8-10,74,63,52,56,52,49,93,69,44,30.22,30.18,30.11,10,10,10,7,2,12,0.00,5,,342
2013-8-11,81,68,55,59,56,53,93,68,42,30.12,30.07,30.02,10,10,10,12,2,15,0.00,4,,308
2013-8-12,81,67,53,57,53,49,93,63,33,30.12,30.07,30.04,10,10,10,21,7,43,0.00,1,,337
2013-8-13,76,61,46,52,47,41,100,65,29,30.24,30.18,30.13,10,8,0,12,3,17,0.00,1,Fog,357
2013-8-14,76,61,45,52,48,45,93,65,36,30.23,30.19,30.13,10,10,9,13,2,16,0.00,2,,208
2013-8-15,78,62,46,57,52,46,100,71,41,30.15,30.13,30.10,10,10,6,9,2,,0.00,2,,202
2013-8-16,80,65,49,57,52,48,100,70,39,30.21,30.17,30.13,10,6,1,15,4,20,0.00,0,,208
2013-8-17,82,66,49,56,52,48,100,71,42,30.21,30.17,30.11,10,6,1,20,8,25,0.00,0,,170
2013-8-18,82,67,52,59,55,51,93,66,39,30.14,30.08,29.99,10,10,6,23,10,30,0.00,1,,176
2013-8-19,88,77,65,68,64,58,84,68,51,30.01,29.94,29.89,10,10,9,15,8,25,T,2,Rain,187
2013-8-20,90,79,67,71,69,65,100,76,52,29.91,29.88,29.85,10,8,4,15,8,24,0.00,0,,170
2013-8-21,91,79,66,72,67,56,100,67,34,30.04,29.89,29.82,10,6,1,12,5,29,0.00,2,,107
2013-8-22,85,71,56,56,49,44,87,57,26,30.17,30.13,30.06,10,10,10,12,4,15,0.00,0,,36
2013-8-23,86,69,51,65,56,48,89,63,37,30.17,30.11,30.04,10,10,10,17,8,23,0.00,0,,134
2013-8-24,91,80,69,72,68,66,90,69,47,30.05,29.98,29.90,10,10,10,28,15,38,0.00,1,,168
2013-8-25,94,84,74,75,72,70,91,70,49,29.99,29.95,29.91,10,10,8,18,10,23,0.09,2,Rain-Thunderstorm,196
2013-8-26,95,84,72,76,73,71,94,72,49,29.97,29.91,29.83,10,9,5,17,7,22,0.00,0,,186
2013-8-27,92,80,67,75,72,69,100,75,49,29.95,29.85,29.78,10,9,4,10,4,14,0.00,2,,53
2013-8-28,87,75,62,69,66,62,100,78,55,30.04,29.98,29.94,10,6,0,10,4,18,0.00,0,Fog,82
2013-8-29,92,81,70,73,69,65,93,70,47,30.01,29.93,29.85,10,10,6,20,8,25,0.00,3,,158
2013-8-30,84,75,65,69,64,60,97,74,51,29.98,29.92,29.85,10,10,10,15,7,22,0.00,3,,25
2013-8-31,89,73,57,65,62,57,100,72,43,29.93,29.84,29.74,10,9,2,36,7,47,0.18,1,Rain-Thunderstorm,193